createdAt,value
2019-05-28T00:02:04.506Z,80.47
2019-05-28T00:04:31.527Z,79.71
2019-05-28T00:06:58.892Z,79.43
2019-05-28T00:09:26.116Z,79.13
2019-05-28T00:11:53.223Z,78.91
2019-05-28T00:14:20.280Z,78.61
2019-05-28T00:16:47.466Z,78.49
2019-05-28T00:19:15.925Z,77.96
2019-05-28T00:21:45.643Z,77.69
2019-05-28T00:24:12.679Z,77.72
2019-05-28T00:26:39.749Z,77.56
2019-05-28T00:29:09.742Z,77.48
2019-05-28T00:31:36.827Z,77.91
2019-05-28T00:34:08.264Z,78.13
2019-05-28T00:36:35.575Z,77.96
2019-05-28T00:39:05.658Z,78.01
2019-05-28T00:41:32.743Z,78.14
2019-05-28T00:43:59.795Z,78.01
2019-05-28T00:46:26.822Z,77.92
2019-05-28T00:48:53.989Z,77.67
2019-05-28T00:51:21.253Z,77.51
2019-05-28T00:53:48.360Z,77.59
2019-05-28T00:56:16.150Z,77.91
2019-05-28T00:58:45.246Z,78.32
2019-05-28T01:01:13.837Z,78.67
2019-05-28T01:03:40.960Z,79.01
2019-05-28T01:06:08.163Z,78.60
2019-05-28T01:08:35.411Z,78.19
2019-05-28T01:11:02.506Z,78.31
2019-05-28T01:13:30.023Z,78.17
2019-05-28T01:15:57.076Z,77.94
2019-05-28T01:18:25.702Z,77.94
2019-05-28T01:20:52.902Z,77.95
2019-05-28T01:23:23.892Z,78.02
2019-05-28T01:25:51.157Z,78.00
2019-05-28T01:28:18.452Z,77.86
2019-05-28T01:30:56.263Z,77.75
2019-05-28T01:33:15.750Z,78.01
2019-05-28T01:35:43.019Z,78.31
2019-05-28T01:38:11.331Z,78.45
2019-05-28T01:40:39.325Z,78.45
2019-05-28T01:43:06.467Z,78.39
2019-05-28T01:45:33.717Z,78.23
2019-05-28T01:48:00.769Z,78.00
2019-05-28T01:50:29.054Z,78.19
2019-05-28T01:52:56.163Z,78.43
2019-05-28T01:55:23.223Z,78.48
2019-05-28T01:57:50.381Z,78.44
2019-05-28T02:00:18.093Z,78.37
2019-05-28T02:02:45.211Z,78.14
2019-05-28T02:05:13.339Z,77.95
2019-05-28T02:07:41.790Z,77.64
2019-05-28T02:10:10.058Z,77.46
2019-05-28T02:12:38.093Z,77.34
2019-05-28T02:15:05.816Z,77.32
2019-05-28T02:17:33.172Z,77.38
2019-05-28T02:20:01.217Z,77.42
2019-05-28T02:22:28.262Z,77.39
2019-05-28T02:24:55.370Z,77.35
2019-05-28T02:27:22.839Z,77.39
2019-05-28T02:29:49.934Z,77.65
2019-05-28T02:32:16.949Z,77.74
2019-05-28T02:34:44.211Z,77.75
2019-05-28T02:37:11.258Z,77.71
2019-05-28T02:39:38.304Z,77.84
2019-05-28T02:42:05.806Z,78.38
2019-05-28T02:44:34.073Z,78.61
2019-05-28T02:47:01.122Z,78.43
2019-05-28T02:49:28.205Z,78.31
2019-05-28T02:51:55.280Z,78.31
2019-05-28T02:54:23.038Z,78.39
2019-05-28T02:56:51.359Z,78.61
2019-05-28T02:59:18.848Z,78.53
2019-05-28T03:01:49.241Z,78.30
2019-05-28T03:04:20.345Z,78.34
2019-05-28T03:06:51.944Z,78.23
2019-05-28T03:09:24.223Z,78.12
2019-05-28T03:11:51.257Z,78.02
2019-05-28T03:14:18.288Z,78.27
2019-05-28T03:16:51.235Z,78.17
2019-05-28T03:19:18.768Z,78.01
2019-05-28T03:21:46.904Z,77.94
2019-05-28T03:24:15.745Z,77.67
2019-05-28T03:26:42.745Z,77.45
2019-05-28T03:29:09.817Z,77.69
2019-05-28T03:31:38.050Z,78.20
2019-05-28T03:34:05.140Z,78.14
2019-05-28T03:36:33.501Z,78.87
2019-05-28T03:39:01.513Z,79.92
2019-05-28T03:41:31.874Z,81.09
2019-05-28T03:43:58.905Z,81.99
2019-05-28T03:46:25.945Z,83.04
2019-05-28T03:48:52.980Z,84.97
2019-05-28T03:51:20.008Z,85.84
2019-05-28T03:53:47.176Z,86.13
2019-05-28T03:56:14.503Z,86.15
2019-05-28T03:58:41.527Z,86.22
2019-05-28T04:01:08.899Z,85.99
2019-05-28T04:03:36.289Z,85.31
2019-05-28T04:06:03.552Z,83.84
2019-05-28T04:08:32.988Z,82.17
2019-05-28T04:10:59.999Z,80.86
2019-05-28T04:13:28.624Z,79.50
2019-05-28T04:15:55.692Z,78.54
2019-05-28T04:18:22.706Z,77.90
2019-05-28T04:20:50.002Z,78.41
2019-05-28T04:23:46.618Z,79.07
2019-05-28T04:26:14.751Z,79.78
2019-05-28T04:28:41.789Z,80.04
2019-05-28T04:31:10.685Z,80.60
2019-05-28T04:33:37.726Z,81.09
2019-05-28T04:36:06.008Z,81.03
2019-05-28T04:38:33.060Z,81.01
2019-05-28T04:41:00.109Z,81.28
2019-05-28T04:43:27.162Z,81.31
2019-05-28T04:45:54.309Z,81.35
2019-05-28T04:48:22.545Z,81.47
2019-05-28T04:50:50.830Z,82.19
2019-05-28T04:53:18.355Z,82.78
2019-05-28T04:55:45.365Z,82.40
2019-05-28T04:58:12.434Z,82.51
2019-05-28T05:00:41.610Z,82.28
2019-05-28T05:03:09.875Z,83.12
2019-05-28T05:05:37.863Z,83.79
2019-05-28T05:08:05.363Z,84.20
2019-05-28T05:10:32.375Z,84.33
2019-05-28T05:12:59.534Z,85.52
2019-05-28T05:15:27.102Z,86.37
2019-05-28T05:17:59.160Z,86.27
2019-05-28T05:20:30.188Z,85.74
2019-05-28T05:22:57.218Z,85.01
2019-05-28T05:25:26.372Z,85.30
2019-05-28T05:27:53.444Z,85.95
2019-05-28T05:30:20.638Z,86.73
2019-05-28T05:32:47.678Z,87.25
2019-05-28T05:35:16.194Z,87.26
2019-05-28T05:37:47.373Z,87.12
2019-05-28T05:40:23.243Z,87.26
2019-05-28T05:42:52.095Z,87.54
2019-05-28T05:45:20.500Z,87.62
2019-05-28T05:47:48.735Z,87.29
2019-05-28T05:50:23.301Z,87.05
2019-05-28T05:52:56.637Z,86.31
2019-05-28T05:55:24.566Z,85.40
2019-05-28T05:57:51.735Z,83.60
2019-05-28T06:00:20.172Z,81.56
2019-05-28T06:02:47.494Z,80.31
2019-05-28T06:05:14.723Z,78.71
2019-05-28T06:07:41.800Z,77.71
2019-05-28T06:10:12.586Z,78.45
2019-05-28T06:12:39.678Z,78.79
2019-05-28T06:15:06.854Z,79.57
2019-05-28T06:17:34.153Z,79.00
2019-05-28T06:20:01.211Z,77.56
2019-05-28T06:22:28.300Z,76.68
2019-05-28T06:24:55.328Z,75.71
2019-05-28T06:27:22.352Z,73.82
2019-05-28T06:29:49.452Z,74.72
2019-05-28T06:32:17.487Z,74.39
2019-05-28T06:34:44.521Z,72.55
2019-05-28T06:37:11.577Z,74.60
2019-05-28T06:39:38.657Z,77.40
2019-05-28T06:42:06.290Z,78.64
2019-05-28T06:44:33.341Z,79.96
2019-05-28T06:47:02.239Z,81.64
2019-05-28T06:49:29.367Z,83.40
2019-05-28T06:51:59.873Z,83.98
2019-05-28T06:54:29.975Z,84.23
2019-05-28T06:56:57.253Z,84.33
2019-05-28T06:59:24.309Z,84.33
2019-05-28T07:01:51.465Z,84.94
2019-05-28T07:04:32.204Z,84.96
2019-05-28T07:06:49.318Z,85.61
2019-05-28T07:09:16.394Z,85.25
2019-05-28T07:11:45.263Z,85.05
2019-05-28T07:14:12.322Z,84.71
2019-05-28T07:16:53.219Z,82.68
2019-05-28T07:19:25.669Z,80.15
2019-05-28T07:22:04.131Z,78.77
2019-05-28T07:24:34.941Z,79.30
2019-05-28T07:27:08.983Z,77.56
2019-05-28T07:29:42.100Z,76.28
2019-05-28T07:36:10.089Z,78.45
2019-05-28T07:38:37.426Z,81.06
2019-05-28T07:41:07.170Z,80.79
2019-05-28T07:43:34.550Z,79.22
2019-05-28T07:46:03.021Z,75.15
2019-05-28T07:48:31.993Z,75.08
2019-05-28T07:50:59.048Z,76.86
2019-05-28T07:53:39.461Z,77.54
2019-05-28T07:55:57.446Z,78.65
2019-05-28T07:58:24.624Z,78.50
2019-05-28T08:00:51.780Z,76.75
2019-05-28T08:03:21.204Z,73.46
2019-05-28T08:05:49.531Z,72.48
2019-05-28T08:08:20.360Z,70.12
2019-05-28T08:13:14.176Z,68.57
2019-05-28T08:15:48.303Z,71.76
2019-05-28T08:18:16.507Z,70.01
2019-05-28T08:20:44.781Z,66.75
2019-05-28T08:23:12.596Z,63.33
2019-05-28T08:25:47.263Z,64.43
2019-05-28T08:28:19.514Z,61.90
2019-05-28T08:30:37.773Z,63.27
2019-05-28T08:33:05.488Z,60.91
2019-05-28T08:35:32.957Z,56.44
2019-05-28T08:38:00.063Z,55.32
2019-05-28T08:40:28.873Z,52.94
2019-05-28T08:42:56.021Z,53.58
2019-05-28T08:45:25.937Z,52.86
2019-05-28T08:47:52.960Z,48.30
2019-05-28T08:50:33.794Z,49.62
2019-05-28T08:52:48.951Z,50.59
2019-05-28T08:55:16.019Z,48.55
2019-05-28T08:57:43.067Z,49.77
2019-05-28T09:00:11.076Z,47.31
2019-05-28T09:02:40.297Z,48.03
2019-05-28T09:05:25.041Z,47.01
2019-05-28T09:07:37.343Z,45.52
2019-05-28T09:10:05.834Z,46.20
2019-05-28T09:12:32.987Z,43.54
2019-05-28T09:15:00.033Z,44.89
2019-05-28T09:17:27.400Z,44.70
2019-05-28T09:19:56.225Z,44.20
2019-05-28T09:22:26.217Z,41.31
2019-05-28T09:24:53.072Z,42.42
2019-05-28T09:27:20.358Z,40.53
2019-05-28T09:29:48.796Z,38.82
2019-05-28T09:32:15.850Z,39.98
2019-05-28T09:34:44.608Z,39.63
2019-05-28T09:37:11.671Z,39.88
2019-05-28T09:39:38.711Z,39.90
2019-05-28T09:42:05.757Z,39.94
2019-05-28T09:44:32.788Z,36.92
2019-05-28T09:46:59.840Z,39.67
2019-05-28T09:49:27.002Z,38.16
2019-05-28T09:51:54.567Z,47.30
2019-05-28T09:54:21.585Z,48.69
2019-05-28T09:56:50.616Z,45.36
2019-05-28T09:59:19.995Z,42.25
2019-05-28T10:01:52.791Z,46.54
2019-05-28T10:04:19.880Z,44.84
2019-05-28T10:06:46.996Z,44.84
2019-05-28T10:09:17.155Z,45.28
2019-05-28T10:11:46.652Z,40.24
2019-05-28T10:14:15.534Z,39.67
2019-05-28T10:16:42.603Z,36.14
2019-05-28T10:19:09.669Z,33.47
2019-05-28T10:21:36.746Z,31.18
2019-05-28T10:24:03.943Z,29.11
2019-05-28T10:26:31.074Z,37.22
2019-05-28T10:28:58.502Z,37.01
2019-05-28T10:31:26.973Z,39.58
2019-05-28T10:33:54.883Z,37.09
2019-05-28T10:36:35.444Z,36.95
2019-05-28T10:38:51.159Z,37.55
2019-05-28T10:41:18.267Z,33.66
2019-05-28T10:43:45.357Z,32.58
2019-05-28T10:46:12.659Z,32.70
2019-05-28T10:48:40.291Z,31.21
2019-05-28T10:51:14.310Z,29.57
2019-05-28T10:56:41.530Z,31.68
2019-05-28T10:59:15.598Z,36.47
2019-05-28T11:01:45.651Z,37.19
2019-05-28T11:04:12.736Z,34.99
2019-05-28T11:06:51.520Z,38.65
2019-05-28T11:09:10.659Z,35.85
2019-05-28T11:11:42.650Z,34.63
2019-05-28T11:14:12.077Z,35.23
2019-05-28T11:16:39.115Z,32.35
2019-05-28T11:19:17.058Z,39.10
2019-05-28T11:21:46.397Z,39.94
2019-05-28T11:24:13.517Z,44.91
2019-05-28T11:26:41.913Z,45.99
2019-05-28T11:29:12.421Z,47.46
2019-05-28T11:31:44.038Z,53.72
2019-05-28T11:34:15.857Z,62.28
2019-05-28T11:36:44.281Z,73.52
2019-05-28T11:39:13.267Z,68.98
2019-05-28T11:41:43.670Z,66.50
2019-05-28T11:44:10.882Z,60.75
2019-05-28T11:46:39.073Z,55.60
2019-05-28T11:49:13.327Z,55.19
2019-05-28T11:51:46.372Z,53.81
2019-05-28T11:54:13.575Z,52.99
2019-05-28T11:56:40.955Z,51.83
2019-05-28T11:59:10.237Z,40.49
2019-05-28T12:01:37.448Z,30.63
2019-05-28T12:04:11.261Z,25.54
2019-05-28T12:06:44.773Z,23.78
2019-05-28T12:09:11.913Z,23.80
2019-05-28T12:11:40.510Z,20.58
2019-05-28T12:14:08.928Z,19.47
2019-05-28T12:16:36.070Z,17.06
2019-05-28T12:19:04.220Z,16.02
2019-05-28T12:21:31.431Z,14.03
2019-05-28T12:23:58.583Z,14.36
2019-05-28T12:26:28.999Z,13.80
2019-05-28T12:28:56.092Z,16.72
2019-05-28T12:31:24.168Z,16.75
2019-05-28T12:33:51.323Z,16.84
2019-05-28T12:36:18.403Z,18.19
2019-05-28T12:38:45.453Z,18.55
2019-05-28T12:41:13.065Z,25.80
2019-05-28T12:43:43.356Z,23.09
2019-05-28T12:46:12.592Z,20.76
2019-05-28T12:48:41.023Z,19.66
2019-05-28T12:51:08.210Z,17.40
2019-05-28T12:53:49.206Z,17.59
2019-05-28T12:56:05.526Z,15.69
2019-05-28T12:58:42.154Z,15.71
2019-05-28T13:01:03.104Z,16.31
2019-05-28T13:03:30.595Z,20.28
2019-05-28T13:06:03.307Z,25.73
2019-05-28T13:08:30.390Z,28.64
2019-05-28T13:10:59.270Z,29.41
2019-05-28T13:13:26.379Z,24.77
2019-05-28T13:15:54.692Z,20.29
2019-05-28T13:18:27.894Z,19.36
2019-05-28T13:20:57.485Z,20.30
2019-05-28T13:23:28.076Z,23.85
2019-05-28T13:25:55.642Z,31.91
2019-05-28T13:28:22.967Z,31.50
2019-05-28T13:30:50.760Z,32.71
2019-05-28T13:33:18.365Z,29.54
2019-05-28T13:35:45.432Z,31.21
2019-05-28T13:38:26.606Z,29.35
2019-05-28T13:40:41.629Z,31.66
2019-05-28T13:43:08.698Z,31.51
2019-05-28T13:45:37.724Z,34.23
2019-05-28T13:48:05.056Z,37.44
2019-05-28T13:50:34.359Z,38.24
2019-05-28T13:53:03.736Z,38.40
2019-05-28T13:55:30.776Z,38.18
2019-05-28T13:57:57.840Z,37.88
2019-05-28T14:00:31.626Z,36.76
2019-05-28T14:02:59.956Z,38.49
2019-05-28T14:05:27.058Z,44.42
2019-05-28T14:07:55.375Z,45.07
2019-05-28T14:10:25.656Z,43.45
2019-05-28T14:12:54.707Z,42.15
2019-05-28T14:15:22.057Z,38.29
2019-05-28T14:17:49.786Z,34.33
2019-05-28T14:20:17.499Z,34.25
2019-05-28T14:22:44.963Z,33.29
2019-05-28T14:25:13.531Z,30.37
2019-05-28T14:27:40.727Z,29.69
2019-05-28T14:30:08.799Z,30.05
2019-05-28T14:32:44.925Z,31.45
2019-05-28T14:35:24.244Z,29.93
2019-05-28T14:37:52.445Z,27.26
2019-05-28T14:40:24.378Z,30.10
2019-05-28T14:42:49.595Z,32.15
2019-05-28T14:45:29.356Z,36.47
2019-05-28T14:47:57.588Z,39.00
2019-05-28T14:50:31.928Z,42.25
2019-05-28T14:53:00.261Z,44.59
2019-05-28T14:55:29.217Z,45.73
2019-05-28T14:57:57.426Z,47.53
2019-05-28T15:00:30.580Z,47.45
2019-05-28T15:02:59.647Z,47.82
2019-05-28T15:05:34.476Z,46.52
2019-05-28T15:08:27.239Z,45.15
2019-05-28T15:10:56.306Z,45.26
2019-05-28T15:13:23.849Z,46.41
2019-05-28T15:15:51.049Z,46.29
2019-05-28T15:18:18.259Z,45.44
2019-05-28T15:20:45.348Z,44.27
2019-05-28T15:23:12.583Z,45.11
2019-05-28T15:25:40.860Z,40.32
2019-05-28T15:28:07.941Z,36.23
2019-05-28T15:30:34.979Z,33.84
2019-05-28T15:33:03.690Z,33.93
2019-05-28T15:35:39.588Z,33.52
2019-05-28T15:38:08.034Z,31.46
2019-05-28T15:40:35.121Z,30.74
2019-05-28T15:43:08.177Z,31.17
2019-05-28T15:45:35.868Z,30.40
2019-05-28T15:48:09.293Z,30.73
2019-05-28T15:50:41.889Z,32.01
2019-05-28T15:53:14.854Z,32.88
2019-05-28T15:55:44.834Z,28.26
2019-05-28T15:58:16.038Z,30.92
2019-05-28T16:00:45.930Z,33.01
2019-05-28T16:03:13.649Z,34.25
2019-05-28T16:05:41.004Z,38.07
2019-05-28T16:08:08.085Z,41.17
2019-05-28T16:10:35.497Z,40.70
2019-05-28T16:13:04.065Z,38.70
2019-05-28T16:15:31.259Z,39.35
2019-05-28T16:18:09.240Z,39.31
2019-05-28T16:20:37.678Z,38.49
2019-05-28T16:23:05.563Z,38.84
2019-05-28T16:25:41.648Z,39.55
2019-05-28T16:28:10.702Z,35.12
2019-05-28T16:30:40.681Z,30.50
2019-05-28T16:33:09.762Z,32.59
2019-05-28T16:35:36.862Z,37.07
2019-05-28T16:38:03.911Z,40.37
2019-05-28T16:40:33.594Z,40.59
2019-05-28T16:43:02.657Z,41.79
2019-05-28T16:45:32.190Z,43.36
2019-05-28T16:47:59.362Z,39.01
2019-05-28T16:50:26.715Z,36.17
2019-05-28T16:52:55.753Z,35.76
2019-05-28T16:55:25.160Z,38.01
2019-05-28T16:57:54.868Z,39.32
2019-05-28T17:00:26.166Z,40.13
2019-05-28T17:02:57.093Z,42.12
2019-05-28T17:05:27.368Z,42.44
2019-05-28T17:07:57.406Z,43.02
2019-05-28T17:10:32.963Z,43.48
2019-05-28T17:12:53.469Z,43.89
2019-05-28T17:15:37.979Z,45.01
2019-05-28T17:18:06.920Z,44.98
2019-05-28T17:20:36.237Z,45.44
2019-05-28T17:23:03.730Z,45.36
2019-05-28T17:25:30.940Z,45.16
2019-05-28T17:27:59.081Z,45.26
2019-05-28T17:30:26.449Z,41.20
2019-05-28T17:32:53.969Z,39.58
2019-05-28T17:35:21.201Z,34.98
2019-05-28T17:37:49.697Z,35.03
2019-05-28T17:40:21.887Z,36.77
2019-05-28T17:42:52.252Z,35.82
2019-05-28T17:45:19.652Z,37.42
2019-05-28T17:47:46.966Z,35.92
2019-05-28T17:50:16.497Z,33.99
2019-05-28T17:52:43.611Z,31.80
2019-05-28T17:55:10.955Z,32.73
2019-05-28T17:57:42.598Z,35.54
2019-05-28T18:00:26.460Z,36.24
2019-05-28T18:02:57.363Z,34.92
2019-05-28T18:05:27.577Z,36.74
2019-05-28T18:07:54.966Z,39.64
2019-05-28T18:10:23.361Z,40.86
2019-05-28T18:12:50.529Z,40.93
2019-05-28T18:15:19.924Z,42.82
2019-05-28T18:17:50.309Z,45.65
2019-05-28T18:20:18.023Z,47.75
2019-05-28T18:22:45.631Z,49.02
2019-05-28T18:25:13.323Z,49.19
2019-05-28T18:27:43.572Z,48.30
2019-05-28T18:30:15.183Z,48.82
2019-05-28T18:32:43.980Z,50.05
2019-05-28T18:35:11.703Z,50.68
2019-05-28T18:37:38.884Z,50.69
2019-05-28T18:40:06.446Z,51.04
2019-05-28T18:42:38.227Z,51.72
2019-05-28T18:45:09.115Z,51.74
2019-05-28T18:47:36.757Z,51.16
2019-05-28T18:50:06.047Z,51.27
2019-05-28T18:52:33.335Z,50.84
2019-05-28T18:55:03.658Z,49.84
2019-05-28T18:57:35.484Z,51.19
2019-05-28T19:00:08.485Z,51.35
2019-05-28T19:02:40.243Z,51.16
2019-05-28T19:05:09.318Z,51.45
2019-05-28T19:07:36.526Z,52.70
2019-05-28T19:10:10.053Z,53.01
2019-05-28T19:12:38.989Z,52.43
2019-05-28T19:15:11.087Z,52.44
2019-05-28T19:17:38.591Z,52.08
2019-05-28T19:20:08.462Z,52.90
2019-05-28T19:22:36.038Z,52.99
2019-05-28T19:25:05.614Z,53.28
2019-05-28T19:27:35.618Z,53.08
2019-05-28T19:30:04.573Z,52.58
2019-05-28T19:32:32.891Z,53.36
2019-05-28T19:35:00.132Z,52.19
2019-05-28T19:37:28.969Z,52.07
2019-05-28T19:39:56.190Z,51.68
2019-05-28T19:42:26.133Z,52.61
2019-05-28T19:44:55.154Z,53.24
2019-05-28T19:47:23.670Z,52.54
2019-05-28T19:49:52.218Z,53.77
2019-05-28T19:52:19.929Z,55.63
2019-05-28T19:54:48.575Z,55.49
2019-05-28T19:57:15.664Z,56.09
2019-05-28T19:59:48.066Z,56.63
2019-05-28T20:02:15.723Z,58.42
2019-05-28T20:04:44.745Z,59.53
2019-05-28T20:07:11.999Z,57.86
2019-05-28T20:09:39.066Z,58.03
2019-05-28T20:12:12.877Z,57.41
2019-05-28T20:14:38.432Z,57.28
2019-05-28T20:17:05.586Z,57.11
2019-05-28T20:19:35.292Z,57.43
2019-05-28T20:22:01.872Z,57.88
2019-05-28T20:24:32.023Z,58.15
2019-05-28T20:27:01.531Z,58.40
2019-05-28T20:29:29.717Z,58.66
2019-05-28T20:31:56.852Z,58.78
2019-05-28T20:34:23.919Z,58.90
2019-05-28T20:36:52.318Z,59.53
2019-05-28T20:39:19.388Z,59.73
2019-05-28T20:41:46.434Z,60.57
2019-05-28T20:44:13.500Z,60.77
2019-05-28T20:46:40.958Z,61.05
2019-05-28T20:49:08.870Z,61.70
2019-05-28T20:51:36.570Z,62.12
2019-05-28T20:54:03.621Z,62.64
2019-05-28T20:56:32.336Z,63.00
2019-05-28T20:59:01.365Z,62.90
2019-05-28T21:01:28.378Z,63.32
2019-05-28T21:03:55.950Z,62.61
2019-05-28T21:06:23.179Z,63.35
2019-05-28T21:08:52.060Z,63.70
2019-05-28T21:11:19.332Z,64.02
2019-05-28T21:13:46.616Z,64.13
2019-05-28T21:16:13.725Z,64.37
2019-05-28T21:18:41.062Z,64.51
2019-05-28T21:21:10.311Z,64.15
2019-05-28T21:23:37.699Z,63.79
2019-05-28T21:26:04.880Z,63.59
2019-05-28T21:28:31.953Z,63.92
2019-05-28T21:30:59.134Z,63.95
2019-05-28T21:33:27.290Z,64.14
2019-05-28T21:35:57.329Z,64.33
2019-05-28T21:38:27.401Z,64.72
2019-05-28T21:40:55.868Z,64.67
2019-05-28T21:43:22.897Z,64.80
2019-05-28T21:45:49.980Z,64.97
2019-05-28T21:48:17.048Z,65.41
2019-05-28T21:50:44.104Z,65.40
2019-05-28T21:53:11.259Z,65.36
2019-05-28T21:55:38.446Z,65.47
2019-05-28T21:58:05.521Z,65.58
2019-05-28T22:00:41.184Z,65.59
2019-05-28T22:03:08.728Z,65.68
2019-05-28T22:05:37.129Z,66.24
2019-05-28T22:08:04.866Z,66.11
2019-05-28T22:10:32.510Z,66.43
2019-05-28T22:13:16.655Z,66.51
2019-05-28T22:15:28.501Z,66.97
2019-05-28T22:17:56.060Z,66.97
2019-05-28T22:20:23.279Z,67.33
2019-05-28T22:22:50.466Z,67.28
2019-05-28T22:25:17.514Z,65.38
2019-05-28T22:27:45.863Z,64.56
2019-05-28T22:30:13.550Z,63.74
2019-05-28T22:32:40.746Z,64.20
2019-05-28T22:35:09.754Z,64.65
2019-05-28T22:37:36.824Z,64.95
2019-05-28T22:40:05.983Z,65.63
2019-05-28T22:42:33.593Z,65.75
2019-05-28T22:45:00.921Z,66.12
2019-05-28T22:47:29.746Z,66.58
2019-05-28T22:50:16.868Z,67.29
2019-05-28T22:52:28.675Z,67.28
2019-05-28T22:54:55.827Z,67.08
2019-05-28T22:57:22.934Z,66.57
2019-05-28T22:59:49.980Z,66.81
2019-05-28T23:02:17.069Z,67.73
2019-05-28T23:04:44.152Z,67.87
2019-05-28T23:07:11.291Z,67.64
2019-05-28T23:09:38.470Z,66.67
2019-05-28T23:12:06.409Z,66.36
2019-05-28T23:14:33.506Z,66.43
2019-05-28T23:17:00.582Z,65.67
2019-05-28T23:19:28.859Z,64.95
2019-05-28T23:21:55.931Z,66.09
2019-05-28T23:24:23.030Z,65.82
2019-05-28T23:26:50.117Z,66.47
2019-05-28T23:29:17.419Z,67.86
2019-05-28T23:31:44.474Z,67.66
2019-05-28T23:34:12.597Z,66.54
2019-05-28T23:36:41.634Z,64.94
2019-05-28T23:39:09.075Z,65.48
2019-05-28T23:41:36.198Z,65.85
2019-05-28T23:44:05.902Z,65.53
2019-05-28T23:46:33.049Z,66.02
2019-05-28T23:49:00.132Z,66.40
2019-05-28T23:51:27.182Z,67.25
2019-05-28T23:53:54.311Z,66.67
2019-05-28T23:56:22.516Z,65.07
2019-05-28T23:58:49.565Z,64.89
